Aeroporto :
LOGIN :

Iscrizione | Disclaimer

   EN    FR    IT 

 










Sommario :    VFR   VFR Marginale   IFR   IFR Intensivo   IFR Molto Intensivo
Visibilità : 
Base nubi : 
>= 8 km
>= 3000ft
5 / 8 km
1000 / 3000 ft
1500m / 5 km
500 / 1000 ft
800 / 1500m
200 / 500 ft
< 800m
< 200 ft
Simboli :   Temporali  Nebbia  Neve Forte  Precipitazioni Forti  Vento > 20 kt
SIGMETs :   Varie  Temporali  Ghiacco  Turbolenza  Onda orograficha  Ceneri Vulcaniche






- Altitudine del aeroporto : 11 ft
- Codice IATA : MJV


LELC - Murcia San Javier

ULTIMO METAR :
  • 290430Z AUTO 35005KT 9000 NCD 18/15 Q1017

METARs OBSOLETI :
  • 290400Z AUTO 35006KT CAVOK 18/15 Q1017
  • 290330Z AUTO 34004KT 300V010 CAVOK 18/15 Q1017
  • 290300Z AUTO 35005KT 300V010 CAVOK 18/15 Q1017
  • 290230Z AUTO 35005KT 9000 NCD 18/14 Q1017
  • 290200Z AUTO 35006KT 9000 NCD 18/14 Q1017

TAF TAF LELC
Valido dal 29 a 00 ore il 30 a 00 ore UTC


282300Z 2900/2924 35006KT CAVOK TX27/2912Z TN16/2903Z
BECMG 2908/2911 06010KT
BECMG 2918/2921 36006KT



MetMap, La meteo Aeronautica in un colpo d'occhio ! - Copyright ORBIFLY Dicembre 2007 - Disclaimer

ORBIFLY MET'MAP TEAM :

Programmazione e sviluppo : Alexandra Zaïnal
Concezione : Baudouin d'Aumeries
Aiuto per la programmazione : Marc-Olivier Méhu
Supporto tecnico e logistico : Manuel Goepfert
Aiuto per la traduzione : Arnaldo La Scala

Contatto : metmap@orbifly.com




FONTI E CREDITI :

   NOAA